CDT,Max TemperatureF,Mean TemperatureF,Min TemperatureF,Max Dew PointF,MeanDew PointF,Min DewpointF,Max Humidity, Mean Humidity, Min Humidity, Max Sea Level PressureIn, Mean Sea Level PressureIn, Min Sea Level PressureIn, Max VisibilityMiles, Mean VisibilityMiles, Min VisibilityMiles, Max Wind SpeedMPH, Mean Wind SpeedMPH, Max Gust SpeedMPH,PrecipitationIn, CloudCover, Events, WindDirDegrees
2012-8-1,96,88,80,77,74,70,85,66,46,30.02,29.97,29.90,10,10,9,12,6,15,0.00,1,,254
2012-8-2,93,86,78,78,75,69,91,74,57,29.98,29.92,29.88,10,10,7,18,5,25,0.00,2,,226
2012-8-3,92,85,78,78,76,71,94,75,56,29.98,29.93,29.88,10,10,8,16,5,20,0.00,1,,222
2012-8-4,92,84,75,77,74,72,94,77,59,30.05,30.00,29.92,10,9,2,16,3,22,0.21,2,Rain-Thunderstorm,186
2012-8-5,93,84,74,75,73,71,94,73,52,30.12,30.07,30.03,10,9,7,9,2,15,T,1,Rain,84
2012-8-6,94,85,75,75,74,72,94,73,52,30.09,30.03,29.96,10,9,5,15,3,22,0.00,1,,25
2012-8-7,93,84,75,77,74,73,94,75,56,30.01,29.96,29.91,10,10,8,13,3,20,0.00,1,,14
2012-8-8,91,84,77,77,75,70,91,75,59,30.03,29.98,29.94,10,8,0,17,2,22,0.35,2,Rain-Thunderstorm,140
2012-8-9,90,83,75,77,74,70,94,77,59,29.99,29.95,29.90,10,9,1,22,5,33,0.39,2,Rain-Thunderstorm,223
2012-8-10,93,85,77,79,76,74,91,76,60,29.94,29.89,29.83,10,10,8,20,8,25,0.00,2,,236
2012-8-11,91,83,74,79,75,70,94,77,59,29.98,29.92,29.87,10,8,1,20,4,28,1.45,4,Rain-Thunderstorm,208
2012-8-12,91,84,76,79,75,70,94,77,59,30.02,29.99,29.94,10,8,1,21,3,28,1.38,4,Rain,118
2012-8-13,92,84,76,78,75,74,94,75,56,30.05,29.99,29.94,10,10,7,17,6,22,0.00,1,,220
2012-8-14,94,86,78,77,75,73,91,72,52,30.00,29.96,29.89,10,10,10,16,8,21,0.00,2,,244
2012-8-15,93,85,77,77,75,72,94,75,56,30.02,29.97,29.92,10,10,10,21,5,25,T,2,,213
2012-8-16,93,86,79,78,75,70,91,70,49,30.06,30.01,29.96,10,10,10,15,3,18,0.00,2,,209
2012-8-17,91,83,74,77,75,71,91,76,60,30.03,29.99,29.94,10,9,2,18,3,30,0.41,3,Rain-Thunderstorm,231
2012-8-18,86,80,73,76,72,70,94,82,70,29.96,29.93,29.88,10,8,1,17,3,24,1.16,5,Rain-Thunderstorm,228
2012-8-19,79,76,72,74,72,71,94,87,79,29.98,29.91,29.83,10,9,0,12,4,15,0.77,6,Fog-Rain,186
2012-8-20,89,80,70,74,70,67,97,74,50,29.91,29.89,29.86,10,10,8,12,3,15,0.00,1,,10
2012-8-21,87,79,71,73,71,69,94,77,59,30.02,29.97,29.90,10,9,5,10,4,14,0.00,2,,39
2012-8-22,88,81,73,72,69,67,93,72,50,30.09,30.04,30.00,10,9,7,8,3,14,0.00,1,,74
2012-8-23,89,80,70,73,70,68,94,74,53,30.08,30.04,30.00,10,8,2,17,3,22,0.00,2,,95
2012-8-24,85,79,72,73,72,70,93,81,69,30.04,30.00,29.97,10,8,2,18,5,25,0.54,4,Rain,184
2012-8-25,87,80,72,75,71,70,93,82,70,30.03,30.00,29.96,10,8,1,12,2,16,0.35,3,Rain-Thunderstorm,121
2012-8-26,90,81,72,76,73,70,94,73,52,30.08,30.02,29.97,10,9,4,9,2,13,0.00,0,,72
2012-8-27,92,83,74,73,70,65,94,69,44,30.03,29.94,29.85,10,10,10,15,7,18,0.00,0,,23
2012-8-28,90,84,77,73,70,66,69,64,59,29.84,29.72,29.58,10,10,10,28,18,38,0.00,3,,11
2012-8-29,82,79,75,73,72,71,94,82,69,29.55,29.31,29.22,10,5,1,38,26,52,0.88,8,Rain,342
2012-8-30,87,81,74,75,73,71,94,78,61,29.88,29.54,29.25,10,7,2,26,14,36,0.32,6,Rain,237
2012-8-31,90,85,79,79,77,74,91,78,64,30.08,30.00,29.89,10,10,6,18,9,26,T,4,,173